createdAt,value
2018-09-01T00:01:27.945Z,6.40
2018-09-01T00:03:55.135Z,5.67
2018-09-01T00:06:22.421Z,5.87
2018-09-01T00:08:49.623Z,6.30
2018-09-01T00:11:16.864Z,7.10
2018-09-01T00:13:44.057Z,5.90
2018-09-01T00:16:11.248Z,6.30
2018-09-01T00:18:38.446Z,5.87
2018-09-01T00:21:05.653Z,6.03
2018-09-01T00:23:32.859Z,6.67
2018-09-01T00:26:00.067Z,5.90
2018-09-01T00:28:27.267Z,5.78
2018-09-01T00:30:54.543Z,5.87
2018-09-01T00:33:21.727Z,4.60
2018-09-01T00:35:48.911Z,6.45
2018-09-01T00:38:21.699Z,5.30
2018-09-01T00:40:48.892Z,5.67
2018-09-01T00:43:16.091Z,5.20
2018-09-01T00:45:43.282Z,5.55
2018-09-01T00:48:10.458Z,5.70
2018-09-01T00:50:37.682Z,6.00
2018-09-01T00:53:04.904Z,5.03
2018-09-01T00:55:33.170Z,5.92
2018-09-01T00:58:00.964Z,5.28
2018-09-01T01:00:28.159Z,6.03
2018-09-01T01:02:55.342Z,5.08
2018-09-01T01:05:22.782Z,4.95
2018-09-01T01:07:49.964Z,5.60
2018-09-01T01:10:17.147Z,5.65
2018-09-01T01:12:44.938Z,5.35
2018-09-01T01:15:12.426Z,5.25
2018-09-01T01:17:39.602Z,5.58
2018-09-01T01:20:07.007Z,4.90
2018-09-01T01:22:34.212Z,5.78
2018-09-01T01:25:01.512Z,5.03
2018-09-01T01:27:28.697Z,5.20
2018-09-01T01:29:55.891Z,5.22
2018-09-01T01:32:23.082Z,4.90
2018-09-01T01:34:50.299Z,5.58
2018-09-01T01:37:17.514Z,4.58
2018-09-01T01:39:44.728Z,4.80
2018-09-01T01:42:11.941Z,4.12
2018-09-01T01:44:39.139Z,6.00
2018-09-01T01:47:06.334Z,5.37
2018-09-01T01:49:33.562Z,4.85
2018-09-01T01:52:00.749Z,5.65
2018-09-01T01:54:27.941Z,7.05
2018-09-01T01:56:55.154Z,5.03
2018-09-01T01:59:22.360Z,5.25
2018-09-01T02:01:49.535Z,4.97
2018-09-01T02:04:16.731Z,5.33
2018-09-01T02:06:43.934Z,6.00
2018-09-01T02:09:11.139Z,5.20
2018-09-01T02:11:38.318Z,4.83
2018-09-01T02:14:06.067Z,4.95
2018-09-01T02:16:33.283Z,5.42
2018-09-01T02:19:00.455Z,5.50
2018-09-01T02:21:27.655Z,4.90
2018-09-01T02:23:54.822Z,4.58
2018-09-01T02:26:22.000Z,4.78
2018-09-01T02:28:49.188Z,4.53
2018-09-01T02:31:16.361Z,4.45
2018-09-01T02:33:43.534Z,5.25
2018-09-01T02:36:10.748Z,4.42
2018-09-01T02:38:37.923Z,5.05
2018-09-01T02:41:05.318Z,5.30
2018-09-01T02:43:32.552Z,4.70
2018-09-01T02:45:59.726Z,5.50
2018-09-01T02:48:26.899Z,5.15
2018-09-01T02:50:54.088Z,5.42
2018-09-01T02:53:21.313Z,5.35
2018-09-01T02:55:48.500Z,5.00
2018-09-01T02:58:15.675Z,4.10
2018-09-01T03:00:42.859Z,4.55
2018-09-01T03:03:10.048Z,4.75
2018-09-01T03:05:37.239Z,4.45
2018-09-01T03:08:04.548Z,5.80
2018-09-01T03:10:31.770Z,5.05
2018-09-01T03:12:59.025Z,5.35
2018-09-01T03:15:26.259Z,4.40
2018-09-01T03:17:53.586Z,5.03
2018-09-01T03:20:20.787Z,5.55
2018-09-01T03:22:47.978Z,4.70
2018-09-01T03:25:15.152Z,5.20
2018-09-01T03:27:42.384Z,5.78
2018-09-01T03:30:09.569Z,4.62
2018-09-01T03:32:36.755Z,4.85
2018-09-01T03:35:03.962Z,4.40
2018-09-01T03:37:31.149Z,5.22
2018-09-01T03:39:58.332Z,5.20
2018-09-01T03:42:25.514Z,4.35
2018-09-01T03:44:52.698Z,4.30
2018-09-01T03:47:19.922Z,4.20
2018-09-01T03:49:47.191Z,3.90
2018-09-01T03:52:14.496Z,4.65
2018-09-01T03:54:41.799Z,4.10
2018-09-01T03:57:08.983Z,3.52
2018-09-01T03:59:36.171Z,5.25
2018-09-01T04:02:03.361Z,4.67
2018-09-01T04:04:30.559Z,3.80
2018-09-01T04:06:57.734Z,4.37
2018-09-01T04:09:24.910Z,4.37
2018-09-01T04:11:52.099Z,3.45
2018-09-01T04:14:19.301Z,3.92
2018-09-01T04:16:46.499Z,3.98
2018-09-01T04:19:21.226Z,3.67
2018-09-01T04:21:49.716Z,3.95
2018-09-01T04:24:16.898Z,3.95
2018-09-01T04:26:44.636Z,3.35
2018-09-01T04:29:11.951Z,3.72
2018-09-01T04:31:39.259Z,5.62
2018-09-01T04:34:06.641Z,4.10
2018-09-01T04:36:33.833Z,4.03
2018-09-01T04:39:01.063Z,4.15
2018-09-01T04:41:28.264Z,5.17
2018-09-01T04:43:55.459Z,3.55
2018-09-01T04:46:22.642Z,3.40
2018-09-01T04:48:49.827Z,3.80
2018-09-01T04:51:17.252Z,3.50
2018-09-01T04:53:44.439Z,4.30
2018-09-01T04:56:11.623Z,4.08
2018-09-01T04:58:38.821Z,4.47
2018-09-01T05:01:06.116Z,3.72
2018-09-01T05:03:33.217Z,3.85
2018-09-01T05:06:00.411Z,3.50
2018-09-01T05:08:27.618Z,3.80
2018-09-01T05:10:54.807Z,3.62
2018-09-01T05:13:21.995Z,4.10
2018-09-01T05:15:49.195Z,3.17
2018-09-01T05:18:16.397Z,4.17
2018-09-01T05:20:43.575Z,4.08
2018-09-01T05:23:10.742Z,3.58
2018-09-01T05:25:37.954Z,4.50
2018-09-01T05:28:05.141Z,5.33
2018-09-01T05:30:32.338Z,4.05
2018-09-01T05:32:59.850Z,4.08
2018-09-01T05:35:27.126Z,3.70
2018-09-01T05:37:54.380Z,4.42
2018-09-01T05:40:21.574Z,3.92
2018-09-01T05:42:48.748Z,4.25
2018-09-01T05:45:15.946Z,4.25
2018-09-01T05:47:43.137Z,3.50
2018-09-01T05:50:10.335Z,3.75
2018-09-01T05:52:37.536Z,3.98
2018-09-01T05:55:04.707Z,3.80
2018-09-01T05:57:31.899Z,4.65
2018-09-01T05:59:59.090Z,3.98
2018-09-01T06:02:26.303Z,4.05
2018-09-01T06:04:53.487Z,4.40
2018-09-01T06:07:20.705Z,3.77
2018-09-01T06:09:47.896Z,3.65
2018-09-01T06:12:15.115Z,4.58
2018-09-01T06:14:42.323Z,4.53
2018-09-01T06:17:09.500Z,3.50
2018-09-01T06:19:36.717Z,3.65
2018-09-01T06:22:03.932Z,3.92
2018-09-01T06:24:31.120Z,4.10
2018-09-01T06:27:00.218Z,4.42
2018-09-01T06:29:27.495Z,3.70
2018-09-01T06:31:57.598Z,3.40
2018-09-01T06:34:24.835Z,4.20
2018-09-01T06:36:52.120Z,4.60
2018-09-01T06:39:19.326Z,4.25
2018-09-01T06:41:46.517Z,4.58
2018-09-01T06:44:13.714Z,4.03
2018-09-01T06:46:40.925Z,4.70
2018-09-01T06:49:08.118Z,3.17
2018-09-01T06:51:35.419Z,2.83
2018-09-01T06:54:02.556Z,2.80
2018-09-01T06:56:29.770Z,3.80
2018-09-01T06:58:56.994Z,3.15
2018-09-01T07:01:24.197Z,3.20
2018-09-01T07:03:51.388Z,3.20
2018-09-01T07:06:18.573Z,2.80
2018-09-01T07:08:45.830Z,2.45
2018-09-01T07:11:12.998Z,3.00
2018-09-01T07:13:40.186Z,3.20
2018-09-01T07:16:07.370Z,3.35
2018-09-01T07:18:34.595Z,3.83
2018-09-01T07:21:01.907Z,2.55
2018-09-01T07:23:29.083Z,3.30
2018-09-01T07:25:56.260Z,3.22
2018-09-01T07:28:23.580Z,3.25
2018-09-01T07:30:51.007Z,2.95
2018-09-01T07:33:18.170Z,3.30
2018-09-01T07:35:45.455Z,2.85
2018-09-01T07:38:12.628Z,2.40
2018-09-01T07:40:39.825Z,2.80
2018-09-01T07:43:07.164Z,2.92
2018-09-01T07:45:34.371Z,3.85
2018-09-01T07:48:01.557Z,3.40
2018-09-01T07:50:28.756Z,3.77
2018-09-01T07:52:55.939Z,3.05
2018-09-01T07:55:23.112Z,3.10
2018-09-01T07:57:50.569Z,3.50
2018-09-01T08:00:17.758Z,3.08
2018-09-01T08:02:44.951Z,3.40
2018-09-01T08:05:12.312Z,2.17
2018-09-01T08:07:39.553Z,2.25
2018-09-01T08:10:07.375Z,3.77
2018-09-01T08:12:34.533Z,2.15
2018-09-01T08:15:01.726Z,4.08
2018-09-01T08:17:28.987Z,3.15
2018-09-01T08:19:56.193Z,2.60
2018-09-01T08:22:23.373Z,2.50
2018-09-01T08:24:50.572Z,2.70
2018-09-01T08:27:17.823Z,2.22
2018-09-01T08:29:45.036Z,3.05
2018-09-01T08:32:12.231Z,2.15
2018-09-01T08:34:39.408Z,3.12
2018-09-01T08:37:06.621Z,2.90
2018-09-01T08:39:33.820Z,3.02
2018-09-01T08:42:01.012Z,2.40
2018-09-01T08:44:28.208Z,4.85
2018-09-01T08:46:55.407Z,2.75
2018-09-01T08:49:22.589Z,3.10
2018-09-01T08:51:49.763Z,2.80
2018-09-01T08:54:16.949Z,2.65
2018-09-01T08:56:44.192Z,2.35
2018-09-01T08:59:11.331Z,2.50
2018-09-01T09:01:38.526Z,1.60
2018-09-01T09:04:05.704Z,3.08
2018-09-01T09:06:32.881Z,2.25
2018-09-01T09:09:00.065Z,2.60
2018-09-01T09:11:27.308Z,2.25
2018-09-01T09:13:54.445Z,2.27
2018-09-01T09:16:21.619Z,2.25
2018-09-01T09:18:48.900Z,1.90
2018-09-01T09:21:16.087Z,3.25
2018-09-01T09:23:43.264Z,1.82
2018-09-01T09:26:10.470Z,1.80
2018-09-01T09:28:37.653Z,1.82
2018-09-01T09:31:04.868Z,1.72
2018-09-01T09:33:32.047Z,1.80
2018-09-01T09:35:59.400Z,2.75
2018-09-01T09:38:26.590Z,2.42
2018-09-01T09:40:53.749Z,2.10
2018-09-01T09:43:20.937Z,2.87
2018-09-01T09:45:48.128Z,2.20
2018-09-01T09:48:15.309Z,2.17
2018-09-01T09:50:42.491Z,2.90
2018-09-01T09:53:09.781Z,1.80
2018-09-01T09:55:36.854Z,2.15
2018-09-01T09:58:04.108Z,2.35
2018-09-01T10:00:36.602Z,2.30
2018-09-01T10:05:37.660Z,1.72
2018-09-01T10:08:04.784Z,1.70
2018-09-01T10:10:31.988Z,2.45
2018-09-01T10:12:59.195Z,1.75
2018-09-01T10:15:26.396Z,1.70
2018-09-01T10:17:53.579Z,1.95
2018-09-01T10:20:20.872Z,2.30
2018-09-01T10:22:47.956Z,2.70
2018-09-01T10:25:15.142Z,1.77
2018-09-01T10:27:42.306Z,2.47
2018-09-01T10:30:09.516Z,2.65
2018-09-01T10:32:36.704Z,2.37
2018-09-01T10:35:03.903Z,1.80
2018-09-01T10:37:31.123Z,1.60
2018-09-01T10:39:58.310Z,1.80
2018-09-01T10:42:25.492Z,1.70
2018-09-01T10:44:52.704Z,1.50
2018-09-01T10:47:19.892Z,2.05
2018-09-01T10:49:47.072Z,2.40
2018-09-01T10:52:14.268Z,2.27
2018-09-01T10:54:41.483Z,2.20
2018-09-01T10:57:08.688Z,1.20
2018-09-01T10:59:36.005Z,1.92
2018-09-01T11:02:03.102Z,1.55
2018-09-01T11:04:30.270Z,2.45
2018-09-01T11:06:57.540Z,1.82
2018-09-01T11:09:24.711Z,1.35
2018-09-01T11:11:51.898Z,1.47
2018-09-01T11:14:19.086Z,1.65
2018-09-01T11:16:46.606Z,22.17
2018-09-01T11:19:14.072Z,8.75
2018-09-01T11:21:41.280Z,16.93
2018-09-01T11:24:08.631Z,8.95
2018-09-01T11:26:35.863Z,10.90
2018-09-01T11:29:03.041Z,9.60
2018-09-01T11:31:30.228Z,9.93
2018-09-01T11:33:57.452Z,13.28
2018-09-01T11:36:24.678Z,13.45
2018-09-01T11:38:51.879Z,11.35
2018-09-01T11:41:19.191Z,7.30
2018-09-01T11:43:46.400Z,7.55
2018-09-01T11:46:13.653Z,8.58
2018-09-01T11:48:41.067Z,5.97
2018-09-01T11:51:08.487Z,4.25
2018-09-01T11:53:35.705Z,3.40
2018-09-01T11:56:02.920Z,3.37
2018-09-01T11:58:30.120Z,8.05
2018-09-01T12:00:57.343Z,4.92
2018-09-01T12:03:24.559Z,4.40
2018-09-01T12:05:51.741Z,6.10
2018-09-01T12:08:18.973Z,8.70
2018-09-01T12:10:47.074Z,5.92
2018-09-01T12:13:14.562Z,5.45
2018-09-01T12:15:41.853Z,10.28
2018-09-01T12:18:09.070Z,5.67
2018-09-01T12:20:36.240Z,3.80
2018-09-01T12:23:03.418Z,9.55
2018-09-01T12:25:30.617Z,4.10
2018-09-01T12:27:57.808Z,5.47
2018-09-01T12:30:25.047Z,3.52
2018-09-01T12:32:52.243Z,5.78
2018-09-01T12:35:19.487Z,3.65
2018-09-01T12:37:46.626Z,3.72
2018-09-01T12:40:13.815Z,3.35
2018-09-01T12:42:41.002Z,3.22
2018-09-01T12:45:08.179Z,3.17
2018-09-01T12:47:35.354Z,3.13
2018-09-01T12:50:02.567Z,2.67
2018-09-01T12:52:29.723Z,3.90
2018-09-01T12:54:56.947Z,2.30
2018-09-01T12:57:24.122Z,3.75
2018-09-01T12:59:51.315Z,2.75
2018-09-01T13:02:20.503Z,2.55
2018-09-01T13:04:47.998Z,2.52
2018-09-01T13:07:15.186Z,2.90
2018-09-01T13:09:42.371Z,4.33
2018-09-01T13:12:09.794Z,2.55
2018-09-01T13:14:36.998Z,2.30
2018-09-01T13:17:04.178Z,1.98
2018-09-01T13:19:31.375Z,2.47
2018-09-01T13:21:58.583Z,2.30
2018-09-01T13:24:25.756Z,2.40
2018-09-01T13:26:52.953Z,2.70
2018-09-01T13:29:20.163Z,2.25
2018-09-01T13:31:47.411Z,1.80
2018-09-01T13:34:14.639Z,1.95
2018-09-01T13:36:41.820Z,2.50
2018-09-01T13:39:09.043Z,2.00
2018-09-01T13:41:36.315Z,2.75
2018-09-01T13:44:03.587Z,1.92
2018-09-01T13:46:30.859Z,2.33
2018-09-01T13:48:58.115Z,2.70
2018-09-01T13:51:25.324Z,4.85
2018-09-01T13:53:52.494Z,5.70
2018-09-01T13:56:20.653Z,2.55
2018-09-01T13:58:47.952Z,4.20
2018-09-01T14:01:15.235Z,10.88
2018-09-01T14:03:42.457Z,3.02
2018-09-01T14:06:09.742Z,6.25
2018-09-01T14:08:37.007Z,5.37
2018-09-01T14:11:04.230Z,2.70
2018-09-01T14:13:31.407Z,3.42
2018-09-01T14:16:12.025Z,3.40
2018-09-01T14:18:39.243Z,2.95
2018-09-01T14:21:06.478Z,3.15
2018-09-01T14:23:33.654Z,2.83
2018-09-01T14:26:00.824Z,3.25
2018-09-01T14:28:28.035Z,2.60
2018-09-01T14:30:55.239Z,2.65
2018-09-01T14:33:22.428Z,2.52
2018-09-01T14:35:50.282Z,2.62
2018-09-01T14:38:17.452Z,2.10
2018-09-01T14:40:44.751Z,1.82
2018-09-01T14:43:11.943Z,1.75
2018-09-01T14:45:39.152Z,2.20
2018-09-01T14:48:06.343Z,2.52
2018-09-01T14:50:33.564Z,3.30
2018-09-01T14:53:00.766Z,1.90
2018-09-01T14:55:27.960Z,1.40
2018-09-01T14:57:55.151Z,2.40
2018-09-01T15:00:22.328Z,2.17
2018-09-01T15:02:49.515Z,2.60
2018-09-01T15:05:16.722Z,3.33
2018-09-01T15:07:43.911Z,2.72
2018-09-01T15:10:11.084Z,2.52
2018-09-01T15:12:38.330Z,2.10
2018-09-01T15:15:05.493Z,2.37
2018-09-01T15:17:32.839Z,2.50
2018-09-01T15:20:00.216Z,2.40
2018-09-01T15:22:27.403Z,2.40
2018-09-01T15:24:54.607Z,2.58
2018-09-01T15:27:21.827Z,2.90
2018-09-01T15:29:49.012Z,2.10
2018-09-01T15:32:16.203Z,4.10
2018-09-01T15:34:43.403Z,2.62
2018-09-01T15:37:10.631Z,2.00
2018-09-01T15:39:37.823Z,1.90
2018-09-01T15:42:05.018Z,2.65
2018-09-01T15:44:32.209Z,2.60
2018-09-01T15:46:59.396Z,2.15
2018-09-01T15:49:26.597Z,3.15
2018-09-01T15:51:53.883Z,2.22
2018-09-01T15:54:21.092Z,2.25
2018-09-01T15:56:48.307Z,2.45
2018-09-01T15:59:15.518Z,1.65
2018-09-01T16:01:42.701Z,2.00
2018-09-01T16:04:09.944Z,1.60
2018-09-01T16:06:37.147Z,2.33
2018-09-01T16:09:05.064Z,2.40
2018-09-01T16:11:32.255Z,2.27
2018-09-01T16:13:59.441Z,2.60
2018-09-01T16:16:26.641Z,2.77
2018-09-01T16:18:53.830Z,1.92
2018-09-01T16:21:21.067Z,2.15
2018-09-01T16:23:48.263Z,2.80
2018-09-01T16:26:15.536Z,2.72
2018-09-01T16:28:42.708Z,2.40
2018-09-01T16:31:09.937Z,2.58
2018-09-01T16:33:37.130Z,2.80
2018-09-01T16:36:04.338Z,2.87
2018-09-01T16:38:31.551Z,2.60
2018-09-01T16:40:58.750Z,3.12
2018-09-01T16:43:25.964Z,2.60
2018-09-01T16:45:53.151Z,2.20
2018-09-01T16:48:20.359Z,2.80
2018-09-01T16:50:47.544Z,2.90
2018-09-01T16:53:14.738Z,2.40
2018-09-01T16:55:41.947Z,2.33
2018-09-01T16:58:09.127Z,2.42
2018-09-01T17:00:36.389Z,2.85
2018-09-01T17:03:03.511Z,2.70
2018-09-01T17:05:30.699Z,2.40
2018-09-01T17:07:57.901Z,3.02
2018-09-01T17:10:25.105Z,1.87
2018-09-01T17:12:52.280Z,2.42
2018-09-01T17:15:19.586Z,2.55
2018-09-01T17:17:46.740Z,5.67
2018-09-01T17:20:13.894Z,2.40
2018-09-01T17:22:41.078Z,2.83
2018-09-01T17:25:08.246Z,2.80
2018-09-01T17:27:35.417Z,3.15
2018-09-01T17:30:02.615Z,3.05
2018-09-01T17:32:29.793Z,2.62
2018-09-01T17:34:56.967Z,3.30
2018-09-01T17:37:24.149Z,2.72
2018-09-01T17:39:51.328Z,3.05
2018-09-01T17:42:18.518Z,2.55
2018-09-01T17:44:45.811Z,3.72
2018-09-01T17:47:12.987Z,3.00
2018-09-01T17:49:40.177Z,2.65
2018-09-01T17:52:07.368Z,4.00
2018-09-01T17:54:34.604Z,5.28
2018-09-01T17:57:01.825Z,2.85
2018-09-01T17:59:29.184Z,2.58
2018-09-01T18:01:56.383Z,2.85
2018-09-01T18:04:23.699Z,3.92
2018-09-01T18:06:50.877Z,2.50
2018-09-01T18:09:18.096Z,2.83
2018-09-01T18:11:45.277Z,2.10
2018-09-01T18:14:13.515Z,2.92
2018-09-01T18:16:40.818Z,2.40
2018-09-01T18:19:07.898Z,3.05
2018-09-01T18:21:35.090Z,5.40
2018-09-01T18:24:02.278Z,3.00
2018-09-01T18:26:29.465Z,4.62
2018-09-01T18:28:56.662Z,3.58
2018-09-01T18:31:23.854Z,10.10
2018-09-01T18:33:51.047Z,12.58
2018-09-01T18:36:18.223Z,4.95
2018-09-01T18:38:45.404Z,4.50
2018-09-01T18:41:12.703Z,4.60
2018-09-01T18:43:39.826Z,3.60
2018-09-01T18:46:07.005Z,2.92
2018-09-01T18:48:34.185Z,3.50
2018-09-01T18:51:01.374Z,3.58
2018-09-01T18:53:28.600Z,3.65
2018-09-01T18:55:55.779Z,2.52
2018-09-01T18:58:22.964Z,4.90
2018-09-01T19:00:50.139Z,3.22
2018-09-01T19:03:17.365Z,3.72
2018-09-01T19:05:44.548Z,3.45
2018-09-01T19:08:11.745Z,4.25
2018-09-01T19:10:38.916Z,3.65
2018-09-01T19:13:06.099Z,4.72
2018-09-01T19:15:33.285Z,3.95
2018-09-01T19:18:00.514Z,4.75
2018-09-01T19:20:27.688Z,3.70
2018-09-01T19:22:54.879Z,2.95
2018-09-01T19:25:22.088Z,3.45
2018-09-01T19:27:49.483Z,3.95
2018-09-01T19:30:16.674Z,3.02
2018-09-01T19:32:43.871Z,3.42
2018-09-01T19:35:11.108Z,3.02
2018-09-01T19:37:38.348Z,3.77
2018-09-01T19:40:05.879Z,3.35
2018-09-01T19:42:33.050Z,3.50
2018-09-01T19:45:00.551Z,3.92
2018-09-01T19:47:27.687Z,4.03
2018-09-01T19:49:54.893Z,3.08
2018-09-01T19:52:22.093Z,4.12
2018-09-01T19:54:49.286Z,3.60
2018-09-01T19:57:16.483Z,3.62
2018-09-01T19:59:43.732Z,3.40
2018-09-01T20:02:10.926Z,3.17
2018-09-01T20:04:38.280Z,4.25
2018-09-01T20:07:05.451Z,3.40
2018-09-01T20:09:32.635Z,3.55
2018-09-01T20:11:59.827Z,3.40
2018-09-01T20:14:27.035Z,3.87
2018-09-01T20:16:54.231Z,3.27
2018-09-01T20:19:21.453Z,3.33
2018-09-01T20:21:48.960Z,3.02
2018-09-01T20:24:16.170Z,3.98
2018-09-01T20:26:43.436Z,4.00
2018-09-01T20:29:10.668Z,3.35
2018-09-01T20:31:37.844Z,2.60
2018-09-01T20:34:05.054Z,3.22
2018-09-01T20:36:32.321Z,3.35
2018-09-01T20:38:59.481Z,3.33
2018-09-01T20:41:26.775Z,3.37
2018-09-01T20:43:53.961Z,3.83
2018-09-01T20:46:21.172Z,3.10
2018-09-01T20:48:48.376Z,2.95
2018-09-01T20:51:15.549Z,3.20
2018-09-01T20:53:42.780Z,3.42
2018-09-01T20:56:10.206Z,3.10
2018-09-01T20:58:37.407Z,3.52
2018-09-01T21:01:04.606Z,2.90
2018-09-01T21:03:31.772Z,3.60
2018-09-01T21:05:58.956Z,3.20
2018-09-01T21:08:26.191Z,3.33
2018-09-01T21:10:53.443Z,7.50
2018-09-01T21:13:20.619Z,3.98
2018-09-01T21:15:47.839Z,4.17
2018-09-01T21:18:14.999Z,2.65
2018-09-01T21:20:42.171Z,2.98
2018-09-01T21:23:09.411Z,2.60
2018-09-01T21:25:36.583Z,3.90
2018-09-01T21:28:03.763Z,4.40
2018-09-01T21:30:30.946Z,4.70
2018-09-01T21:32:58.136Z,6.30
2018-09-01T21:35:25.323Z,4.00
2018-09-01T21:37:52.497Z,3.10
2018-09-01T21:40:19.682Z,3.75
2018-09-01T21:42:46.901Z,4.28
2018-09-01T21:45:14.076Z,4.78
2018-09-01T21:47:41.310Z,3.72
2018-09-01T21:50:09.014Z,3.83
2018-09-01T21:52:36.187Z,4.35
2018-09-01T21:55:03.607Z,3.10
2018-09-01T21:57:30.812Z,4.55
2018-09-01T21:59:58.064Z,3.12
2018-09-01T22:02:26.107Z,4.83
2018-09-01T22:04:58.930Z,5.97
2018-09-01T22:07:26.151Z,4.87
2018-09-01T22:09:54.191Z,4.42
2018-09-01T22:12:21.895Z,4.60
2018-09-01T22:14:49.671Z,4.12
2018-09-01T22:17:17.001Z,2.90
2018-09-01T22:19:44.219Z,3.75
2018-09-01T22:22:11.691Z,4.05
2018-09-01T22:24:38.902Z,6.03
2018-09-01T22:27:06.115Z,3.75
2018-09-01T22:29:33.296Z,3.85
2018-09-01T22:32:00.546Z,4.60
2018-09-01T22:34:27.718Z,3.40
2018-09-01T22:36:55.116Z,3.72
2018-09-01T22:41:59.970Z,4.67
2018-09-01T22:44:27.142Z,3.62
2018-09-01T22:47:06.262Z,3.40
2018-09-01T22:49:33.480Z,3.27
2018-09-01T22:52:00.668Z,3.02
2018-09-01T22:54:27.868Z,4.05
2018-09-01T22:56:55.050Z,4.62
2018-09-01T22:59:22.228Z,5.67
2018-09-01T23:01:49.386Z,3.75
2018-09-01T23:04:16.579Z,4.55
2018-09-01T23:06:43.749Z,4.45
2018-09-01T23:09:10.930Z,4.85
2018-09-01T23:11:38.130Z,5.70
2018-09-01T23:14:05.332Z,4.05
2018-09-01T23:16:32.515Z,4.30
2018-09-01T23:18:59.744Z,4.30
2018-09-01T23:21:26.917Z,3.72
2018-09-01T23:23:54.098Z,5.10
2018-09-01T23:26:21.281Z,4.10
2018-09-01T23:28:48.547Z,6.00
2018-09-01T23:31:15.724Z,4.03
2018-09-01T23:33:42.946Z,4.40
2018-09-01T23:36:10.199Z,4.72
2018-09-01T23:38:37.362Z,4.45
2018-09-01T23:41:04.543Z,4.45
2018-09-01T23:43:31.735Z,4.75
2018-09-01T23:45:58.927Z,4.72
2018-09-01T23:48:26.153Z,3.95
2018-09-01T23:50:53.347Z,4.35
2018-09-01T23:53:20.541Z,3.98
2018-09-01T23:55:47.728Z,3.62
2018-09-01T23:58:14.878Z,3.95
